createdAt,value
2022-08-28T00:01:18.055Z,92641.50
2022-08-28T00:04:22.368Z,92647.56
2022-08-28T00:07:26.422Z,92636.88
2022-08-28T00:10:31.092Z,92636.84
2022-08-28T00:13:35.267Z,92642.22
2022-08-28T00:16:39.268Z,92641.53
2022-08-28T00:19:42.983Z,92648.94
2022-08-28T00:22:47.749Z,92636.25
2022-08-28T00:25:51.383Z,92641.56
2022-08-28T00:28:54.665Z,92644.28
2022-08-28T00:31:59.446Z,92634.84
2022-08-28T00:35:03.727Z,92640.81
2022-08-28T00:38:07.324Z,92635.41
2022-08-28T00:41:11.637Z,92636.00
2022-08-28T00:44:19.189Z,92639.28
2022-08-28T00:47:27.445Z,92638.53
2022-08-28T00:50:53.905Z,92639.81
2022-08-28T00:54:07.658Z,92631.81
2022-08-28T00:57:16.066Z,92631.09
2022-08-28T01:00:30.884Z,92635.75
2022-08-28T01:03:34.876Z,92616.88
2022-08-28T01:06:39.290Z,92623.56
2022-08-28T01:09:46.375Z,92630.19
2022-08-28T01:12:51.039Z,92616.66
2022-08-28T01:15:56.503Z,92625.88
2022-08-28T01:19:01.448Z,92621.53
2022-08-28T01:22:22.678Z,92612.38
2022-08-28T01:25:31.793Z,92619.47
2022-08-28T01:28:35.554Z,92612.06
2022-08-28T01:31:41.259Z,92627.06
2022-08-28T01:34:45.403Z,92618.97
2022-08-28T01:37:48.626Z,92619.47
2022-08-28T01:40:55.473Z,92614.34
2022-08-28T01:43:58.712Z,92615.72
2022-08-28T01:47:02.181Z,92612.31
2022-08-28T01:50:09.258Z,92624.28
2022-08-28T01:53:16.580Z,92606.78
2022-08-28T01:56:21.469Z,92607.50
2022-08-28T01:59:25.502Z,92614.50
2022-08-28T02:02:29.769Z,92604.34
2022-08-28T02:05:34.337Z,92606.50
2022-08-28T02:08:38.129Z,92606.41
2022-08-28T02:11:46.737Z,92602.72
2022-08-28T02:14:50.703Z,92598.28
2022-08-28T02:17:54.562Z,92594.19
2022-08-28T02:20:58.341Z,92593.47
2022-08-28T02:24:02.862Z,92588.41
2022-08-28T02:27:07.020Z,92580.84
2022-08-28T02:30:12.990Z,92582.22
2022-08-28T02:33:16.875Z,92576.63
2022-08-28T02:36:21.044Z,92566.38
2022-08-28T02:39:24.869Z,92572.59
2022-08-28T02:42:30.204Z,92567.34
2022-08-28T02:45:34.682Z,92569.53
2022-08-28T02:48:40.008Z,92562.44
2022-08-28T02:51:43.159Z,92572.31
2022-08-28T02:54:48.323Z,92557.84
2022-08-28T02:57:53.419Z,92563.16
2022-08-28T03:00:59.147Z,92554.75
2022-08-28T03:04:06.176Z,92544.50
2022-08-28T03:07:14.100Z,92554.13
2022-08-28T03:10:18.904Z,92542.63
2022-08-28T03:13:26.645Z,92545.94
2022-08-28T03:16:31.885Z,92532.28
2022-08-28T03:19:35.220Z,92538.63
2022-08-28T03:22:57.485Z,92525.34
2022-08-28T03:26:07.711Z,92519.13
2022-08-28T03:29:11.913Z,92507.72
2022-08-28T03:32:16.040Z,92503.56
2022-08-28T03:35:20.842Z,92511.75
2022-08-28T03:38:25.421Z,92504.63
2022-08-28T03:41:31.493Z,92502.47
2022-08-28T03:44:35.506Z,92497.88
2022-08-28T03:47:41.113Z,92492.81
2022-08-28T03:50:48.387Z,92479.78
2022-08-28T03:53:53.450Z,92479.06
2022-08-28T03:56:57.585Z,92473.59
2022-08-28T04:00:02.011Z,92469.19
2022-08-28T04:03:15.338Z,92467.81
2022-08-28T04:06:18.857Z,92465.91
2022-08-28T04:09:22.060Z,92465.50
2022-08-28T04:12:26.184Z,92462.34
2022-08-28T04:15:30.691Z,92449.13
2022-08-28T04:18:34.041Z,92449.78
2022-08-28T04:21:37.367Z,92437.41
2022-08-28T04:24:41.177Z,92435.69
2022-08-28T04:27:44.271Z,92437.25
2022-08-28T04:30:48.354Z,92435.84
2022-08-28T04:33:51.690Z,92429.72
2022-08-28T04:36:55.563Z,92425.81
2022-08-28T04:39:59.715Z,92424.63
2022-08-28T04:43:04.000Z,92418.94
2022-08-28T04:46:11.887Z,92409.09
2022-08-28T04:49:16.877Z,92409.88
2022-08-28T04:52:20.056Z,92404.56
2022-08-28T04:55:27.801Z,92412.50
2022-08-28T04:58:46.857Z,92401.63
2022-08-28T05:01:50.867Z,92398.31
2022-08-28T05:04:54.930Z,92393.72
2022-08-28T05:07:58.931Z,92392.28
2022-08-28T05:11:30.692Z,92392.59
2022-08-28T05:14:38.737Z,92381.22
2022-08-28T05:17:41.715Z,92383.84
2022-08-28T05:20:48.878Z,92369.03
2022-08-28T05:23:57.095Z,92375.53
2022-08-28T05:27:01.106Z,92373.41
2022-08-28T05:30:06.300Z,92375.38
2022-08-28T05:33:11.321Z,92365.00
2022-08-28T05:36:16.276Z,92354.81
2022-08-28T05:39:20.075Z,92355.09
2022-08-28T05:42:23.131Z,92357.59
2022-08-28T05:45:34.990Z,92366.25
2022-08-28T05:48:40.216Z,92367.91
2022-08-28T05:51:44.448Z,92360.41
2022-08-28T05:54:47.575Z,92372.69
2022-08-28T05:57:51.012Z,92350.38
2022-08-28T06:00:55.072Z,92366.91
2022-08-28T06:04:02.527Z,92352.34
2022-08-28T06:07:06.003Z,92333.41
2022-08-28T06:10:10.742Z,92337.25
2022-08-28T06:13:14.332Z,92336.34
2022-08-28T06:16:17.730Z,92339.34
2022-08-28T06:19:23.975Z,92337.72
2022-08-28T06:22:27.596Z,92330.28
2022-08-28T06:25:31.357Z,92319.22
2022-08-28T06:28:34.778Z,92317.69
2022-08-28T06:31:39.042Z,92315.84
2022-08-28T06:34:42.246Z,92305.00
2022-08-28T06:37:46.757Z,92308.47
2022-08-28T06:40:53.195Z,92295.19
2022-08-28T06:43:57.505Z,92300.22
2022-08-28T06:47:01.030Z,92310.34
2022-08-28T06:50:04.670Z,92288.84
2022-08-28T06:53:09.886Z,92287.97
2022-08-28T06:56:26.187Z,92285.41
2022-08-28T06:59:29.996Z,92283.25
2022-08-28T07:02:34.099Z,92288.81
2022-08-28T07:05:38.646Z,92284.75
2022-08-28T07:08:44.294Z,92280.91
2022-08-28T07:11:47.615Z,92282.00
2022-08-28T07:14:50.852Z,92277.06
2022-08-28T07:17:53.841Z,92280.44
2022-08-28T07:20:59.669Z,92278.84
2022-08-28T07:24:04.975Z,92277.81
2022-08-28T07:27:09.612Z,92270.75
2022-08-28T07:30:13.795Z,92268.78
2022-08-28T07:33:16.846Z,92282.28
2022-08-28T07:36:29.140Z,92276.88
2022-08-28T07:39:33.017Z,92272.88
2022-08-28T07:42:55.846Z,92273.81
2022-08-28T07:46:04.749Z,92267.97
2022-08-28T07:49:09.385Z,92268.66
2022-08-28T07:52:13.644Z,92275.50
2022-08-28T07:55:17.045Z,92264.94
2022-08-28T07:58:22.426Z,92256.00
2022-08-28T08:01:27.906Z,92256.31
2022-08-28T08:04:34.629Z,92251.75
2022-08-28T08:07:41.875Z,92248.69
2022-08-28T08:10:57.530Z,92245.19
2022-08-28T08:14:06.878Z,92248.34
2022-08-28T08:17:11.079Z,92248.69
2022-08-28T08:20:14.624Z,92241.50
2022-08-28T08:23:18.419Z,92252.00
2022-08-28T08:26:25.042Z,92251.72
2022-08-28T08:29:32.167Z,92257.16
2022-08-28T08:32:36.208Z,92251.84
2022-08-28T08:35:39.322Z,92249.53
2022-08-28T08:38:43.520Z,92256.81
2022-08-28T08:41:52.301Z,92244.78
2022-08-28T08:44:59.248Z,92245.94
2022-08-28T08:48:04.030Z,92247.13
2022-08-28T08:51:21.461Z,92249.16
2022-08-28T08:54:24.543Z,92262.47
2022-08-28T08:57:29.860Z,92265.88
2022-08-28T09:00:50.763Z,92277.63
2022-08-28T09:04:41.013Z,92278.38
2022-08-28T09:07:57.336Z,92279.66
2022-08-28T09:11:13.986Z,92281.78
2022-08-28T09:14:37.203Z,92289.81
2022-08-28T09:17:51.164Z,92293.00
2022-08-28T09:20:56.546Z,92298.34
2022-08-28T09:24:05.940Z,92292.34
2022-08-28T09:27:32.389Z,92292.53
2022-08-28T09:30:37.158Z,92305.72
2022-08-28T09:33:42.829Z,92313.31
2022-08-28T09:36:46.842Z,92311.06
2022-08-28T09:39:50.880Z,92325.09
2022-08-28T09:43:27.784Z,92314.88
2022-08-28T09:46:33.233Z,92322.47
2022-08-28T09:49:37.349Z,92324.97
2022-08-28T09:52:41.484Z,92324.75
2022-08-28T09:55:44.393Z,92325.22
2022-08-28T09:58:52.468Z,92329.63
2022-08-28T10:02:32.122Z,92327.78
2022-08-28T10:05:44.359Z,92328.09
2022-08-28T10:09:25.008Z,92323.84
2022-08-28T10:12:47.170Z,92336.19
2022-08-28T10:16:10.311Z,92351.03
2022-08-28T10:19:33.229Z,92362.53
2022-08-28T10:23:00.735Z,92365.00
2022-08-28T10:26:26.020Z,92380.34
2022-08-28T10:29:52.104Z,92381.22
2022-08-28T10:33:04.343Z,92367.44
2022-08-28T10:36:34.228Z,92374.78
2022-08-28T10:40:00.287Z,92385.63
2022-08-28T10:43:17.078Z,92393.69
2022-08-28T10:46:42.450Z,92392.59
2022-08-28T10:49:49.550Z,92406.59
2022-08-28T10:53:03.975Z,92420.53
2022-08-28T10:56:31.300Z,92423.19
2022-08-28T10:59:42.349Z,92433.34
2022-08-28T11:02:49.170Z,92445.81
2022-08-28T11:06:02.724Z,92447.41
2022-08-28T11:09:26.045Z,92454.91
2022-08-28T11:12:38.012Z,92460.13
2022-08-28T11:15:47.749Z,92471.88
2022-08-28T11:19:00.818Z,92471.22
2022-08-28T11:22:25.556Z,92478.34
2022-08-28T11:25:59.590Z,92482.88
2022-08-28T11:29:04.663Z,92470.31
2022-08-28T11:32:48.038Z,92470.78
2022-08-28T11:35:52.205Z,92477.88
2022-08-28T11:38:56.608Z,92470.97
2022-08-28T11:42:13.934Z,92481.88
2022-08-28T11:45:47.610Z,92484.09
2022-08-28T11:48:54.807Z,92481.72
2022-08-28T11:52:20.079Z,92492.66
2022-08-28T11:55:32.343Z,92498.88
2022-08-28T11:58:55.583Z,92496.16
2022-08-28T12:02:39.058Z,92508.78
2022-08-28T12:05:51.289Z,92510.19
2022-08-28T12:08:58.305Z,92522.78
2022-08-28T12:12:10.770Z,92527.81
2022-08-28T12:15:28.779Z,92532.31
2022-08-28T12:18:43.592Z,92536.34
2022-08-28T12:21:47.391Z,92536.38
2022-08-28T12:24:59.126Z,92543.22
2022-08-28T12:28:16.247Z,92544.25
2022-08-28T12:31:52.172Z,92548.22
2022-08-28T12:35:01.262Z,92559.81
2022-08-28T12:38:10.194Z,92547.72
2022-08-28T12:41:18.626Z,92550.28
2022-08-28T12:44:28.678Z,92553.00
2022-08-28T12:47:34.558Z,92557.97
2022-08-28T12:50:40.449Z,92563.50
2022-08-28T12:53:49.436Z,92569.06
2022-08-28T12:56:53.146Z,92566.41
2022-08-28T13:00:09.441Z,92565.34
2022-08-28T13:03:13.715Z,92573.84
2022-08-28T13:06:25.597Z,92554.56
2022-08-28T13:09:31.110Z,92554.19
2022-08-28T13:12:55.799Z,92559.69
2022-08-28T13:16:07.172Z,92561.81
2022-08-28T13:19:21.848Z,92565.41
2022-08-28T13:22:35.538Z,92561.59
2022-08-28T13:25:39.336Z,92567.53
2022-08-28T13:28:44.686Z,92575.59
2022-08-28T13:32:08.474Z,92580.47
2022-08-28T13:35:23.743Z,92582.91
2022-08-28T13:38:27.599Z,92579.66
2022-08-28T13:41:31.892Z,92582.44
2022-08-28T13:44:48.279Z,92581.00
2022-08-28T13:47:52.510Z,92575.09
2022-08-28T13:51:10.331Z,92582.00
2022-08-28T13:54:15.349Z,92585.56
2022-08-28T13:57:19.832Z,92583.28
2022-08-28T14:00:24.329Z,92591.56
2022-08-28T14:03:38.758Z,92587.72
2022-08-28T14:06:44.607Z,92594.84
2022-08-28T14:09:50.917Z,92597.13
2022-08-28T14:12:57.983Z,92594.41
2022-08-28T14:16:06.418Z,92589.59
2022-08-28T14:19:10.203Z,92586.81
2022-08-28T14:22:14.940Z,92598.22
2022-08-28T14:25:18.717Z,92597.50
2022-08-28T14:28:22.959Z,92596.19
2022-08-28T14:31:27.342Z,92588.84
2022-08-28T14:34:32.160Z,92595.69
2022-08-28T14:37:35.872Z,92599.47
2022-08-28T14:40:41.896Z,92599.84
2022-08-28T14:43:46.215Z,92607.44
2022-08-28T14:46:51.092Z,92596.69
2022-08-28T14:49:55.425Z,92593.53
2022-08-28T14:53:00.134Z,92606.34
2022-08-28T14:56:08.175Z,92611.72
2022-08-28T14:59:18.385Z,92598.28
2022-08-28T15:02:23.460Z,92610.50
2022-08-28T15:05:27.528Z,92607.06
2022-08-28T15:08:31.462Z,92611.94
2022-08-28T15:11:36.690Z,92613.81
2022-08-28T15:14:40.562Z,92615.13
2022-08-28T15:17:54.432Z,92609.91
2022-08-28T15:20:58.678Z,92610.59
2022-08-28T15:24:04.787Z,92618.59
2022-08-28T15:27:08.141Z,92628.84
2022-08-28T15:30:15.549Z,92628.88
2022-08-28T15:33:19.266Z,92621.59
2022-08-28T15:36:24.053Z,92619.63
2022-08-28T15:39:47.560Z,92624.97
2022-08-28T15:42:51.360Z,92631.63
2022-08-28T15:45:56.043Z,92637.22
2022-08-28T15:49:01.317Z,92640.63
2022-08-28T15:52:05.735Z,92636.84
2022-08-28T15:55:10.757Z,92647.66
2022-08-28T15:58:14.557Z,92653.88
2022-08-28T16:01:20.271Z,92649.19
2022-08-28T16:04:23.350Z,92648.53
2022-08-28T16:07:27.455Z,92647.91
2022-08-28T16:10:31.589Z,92651.44
2022-08-28T16:13:36.413Z,92663.56
2022-08-28T16:16:40.603Z,92659.63
2022-08-28T16:19:50.492Z,92666.44
2022-08-28T16:22:54.596Z,92669.81
2022-08-28T16:25:58.485Z,92675.88
2022-08-28T16:29:02.215Z,92679.94
2022-08-28T16:32:06.800Z,92688.06
2022-08-28T16:35:12.280Z,92693.44
2022-08-28T16:38:17.056Z,92692.22
2022-08-28T16:41:25.571Z,92689.50
2022-08-28T16:44:31.588Z,92701.66
2022-08-28T16:47:37.163Z,92697.13
2022-08-28T16:50:42.355Z,92699.84
2022-08-28T16:53:46.450Z,92701.94
2022-08-28T16:56:50.423Z,92699.38
2022-08-28T16:59:54.055Z,92698.78
2022-08-28T17:02:58.410Z,92698.19
2022-08-28T17:06:09.424Z,92695.44
2022-08-28T17:09:13.119Z,92705.59
2022-08-28T17:12:17.623Z,92702.25
2022-08-28T17:15:22.828Z,92701.66
2022-08-28T17:18:27.031Z,92710.59
2022-08-28T17:21:49.585Z,92705.22
2022-08-28T17:24:53.958Z,92715.91
2022-08-28T17:27:58.190Z,92713.81
2022-08-28T17:31:02.407Z,92723.94
2022-08-28T17:34:07.942Z,92731.53
2022-08-28T17:37:12.527Z,92724.94
2022-08-28T17:40:17.914Z,92739.78
2022-08-28T17:43:22.230Z,92742.56
2022-08-28T17:46:26.349Z,92739.19
2022-08-28T17:49:30.161Z,92739.78
2022-08-28T17:52:34.698Z,92749.19
2022-08-28T17:55:38.900Z,92746.50
2022-08-28T17:58:42.562Z,92743.84
2022-08-28T18:01:47.666Z,92744.66
2022-08-28T18:04:51.411Z,92753.47
2022-08-28T18:07:55.256Z,92758.13
2022-08-28T18:10:58.996Z,92744.72
2022-08-28T18:14:03.178Z,92749.47
2022-08-28T18:17:06.967Z,92748.22
2022-08-28T18:20:13.481Z,92753.69
2022-08-28T18:23:17.387Z,92767.19
2022-08-28T18:26:21.505Z,92759.75
2022-08-28T18:29:25.639Z,92761.03
2022-08-28T18:32:29.431Z,92767.72
2022-08-28T18:35:33.723Z,92759.69
2022-08-28T18:38:37.542Z,92770.41
2022-08-28T18:41:43.466Z,92779.16
2022-08-28T18:44:48.309Z,92782.50
2022-08-28T18:47:53.101Z,92783.84
2022-08-28T18:50:57.117Z,92790.63
2022-08-28T18:54:02.116Z,92796.69
2022-08-28T18:57:06.576Z,92801.44
2022-08-28T19:00:11.701Z,92796.13
2022-08-28T19:03:15.561Z,92793.44
2022-08-28T19:06:19.329Z,92802.91
2022-08-28T19:09:29.018Z,92796.84
2022-08-28T19:12:39.185Z,92800.94
2022-08-28T19:15:43.287Z,92794.28
2022-08-28T19:18:47.930Z,92803.03
2022-08-28T19:21:51.720Z,92800.38
2022-08-28T19:24:55.899Z,92799.72
2022-08-28T19:28:01.983Z,92799.03
2022-08-28T19:31:06.229Z,92805.16
2022-08-28T19:34:12.519Z,92796.41
2022-08-28T19:37:17.237Z,92807.84
2022-08-28T19:40:21.132Z,92811.13
2022-08-28T19:43:25.758Z,92815.16
2022-08-28T19:46:46.716Z,92821.88
2022-08-28T19:49:55.631Z,92819.16
2022-08-28T19:53:01.174Z,92811.78
2022-08-28T19:56:07.795Z,92824.53
2022-08-28T19:59:11.731Z,92829.88
2022-08-28T20:02:15.140Z,92835.25
2022-08-28T20:05:20.359Z,92833.25
2022-08-28T20:08:26.449Z,92841.31
2022-08-28T20:11:30.894Z,92837.94
2022-08-28T20:14:35.469Z,92842.69
2022-08-28T20:17:43.868Z,92851.41
2022-08-28T20:20:50.672Z,92851.47
2022-08-28T20:23:54.764Z,92856.16
2022-08-28T20:26:58.941Z,92860.88
2022-08-28T20:30:10.720Z,92854.84
2022-08-28T20:33:15.274Z,92858.19
2022-08-28T20:36:21.167Z,92855.47
2022-08-28T20:39:25.963Z,92860.91
2022-08-28T20:42:31.665Z,92865.00
2022-08-28T20:45:35.859Z,92861.00
2022-08-28T20:48:40.054Z,92863.66
2022-08-28T20:51:55.347Z,92867.09
2022-08-28T20:54:59.515Z,92862.41
2022-08-28T20:58:02.963Z,92874.41
2022-08-28T21:01:06.878Z,92872.41
2022-08-28T21:04:10.875Z,92879.13
2022-08-28T21:07:19.733Z,92879.75
2022-08-28T21:10:24.519Z,92880.41
2022-08-28T21:13:28.697Z,92882.44
2022-08-28T21:16:34.321Z,92881.78
2022-08-28T21:19:40.510Z,92889.84
2022-08-28T21:22:45.224Z,92904.56
2022-08-28T21:25:49.524Z,92898.53
2022-08-28T21:28:53.154Z,92907.97
2022-08-28T21:31:56.936Z,92914.03
2022-08-28T21:35:03.313Z,92912.00
2022-08-28T21:38:07.340Z,92908.69
2022-08-28T21:41:13.930Z,92917.44
2022-08-28T21:44:18.253Z,92925.47
2022-08-28T21:47:24.205Z,92926.81
2022-08-28T21:50:30.805Z,92920.78
2022-08-28T21:53:35.517Z,92930.16
2022-08-28T21:56:39.458Z,92934.84
2022-08-28T21:59:44.286Z,92930.84
2022-08-28T22:02:48.807Z,92935.56
2022-08-28T22:05:54.436Z,92937.63
2022-08-28T22:08:58.201Z,92944.31
2022-08-28T22:12:02.377Z,92949.69
2022-08-28T22:15:06.179Z,92944.31
2022-08-28T22:18:11.963Z,92948.38
2022-08-28T22:21:36.205Z,92942.97
2022-08-28T22:24:40.374Z,92947.69
2022-08-28T22:27:44.075Z,92942.34
2022-08-28T22:30:48.589Z,92948.41
2022-08-28T22:33:53.333Z,92943.03
2022-08-28T22:36:57.567Z,92953.78
2022-08-28T22:40:01.497Z,92961.84
2022-08-28T22:43:05.297Z,92963.19
2022-08-28T22:46:09.824Z,92959.16
2022-08-28T22:49:14.030Z,92963.91
2022-08-28T22:52:18.117Z,92970.63
2022-08-28T22:55:23.123Z,92976.69
2022-08-28T22:58:30.003Z,92975.34
2022-08-28T23:01:33.741Z,92985.44
2022-08-28T23:04:36.805Z,92979.38
2022-08-28T23:07:40.435Z,92982.09
2022-08-28T23:10:58.520Z,92977.41
2022-08-28T23:14:04.771Z,92978.09
2022-08-28T23:17:08.603Z,92992.19
2022-08-28T23:20:14.800Z,92994.22
2022-08-28T23:23:19.599Z,92994.88
2022-08-28T23:26:23.355Z,92995.56
2022-08-28T23:29:26.932Z,92996.88
2022-08-28T23:32:31.157Z,92991.53
2022-08-28T23:35:37.559Z,92995.53
2022-08-28T23:38:43.107Z,92996.19
2022-08-28T23:41:47.698Z,92991.50
2022-08-28T23:44:51.687Z,93000.84
2022-08-28T23:47:55.573Z,93011.56
2022-08-28T23:51:00.692Z,93015.63
2022-08-28T23:54:04.642Z,93004.91
2022-08-28T23:57:11.016Z,93008.19
